Melrose, Ohio
Current Conditions -  °F | °C
As of 8:53 AM on Thursday 30 Oct 2014 (Local Time) from KDFI Reporting Station
Overcast Overcast  
Wind Chill: 39°   Ceiling: 4400
Heat Index: 39°   Visibility: 10mi
Dew Point: 37°   Wind: 0mph
Humidity: 93%   Direction: NA
Pressure: 30.16"   Gusts: NA
Location:  41.09°N, 84.42°W
Report Text: KDFI 301253Z AUTO 00000KT 10SM OVC044 04/03 A3016 RMK AO2 SLP218 T00390028
Loading
Personal Weather Stations






























Interactive Weather Map
Tropical Storm Tracking
New forecast layout! Learn more

10-Day Weather Forecast

Advertisements
Track Severe Weather on mobile